Southey, Canada
Current Conditions -  °F | °C
As of 6:00 PM on Saturday 22 Nov 2014 (Local Time) from CYQR Reporting Station
Broken Clouds Broken Clouds  
Wind Chill: 28°   Ceiling: 8000
Heat Index: 36°   Visibility: 15mi
Dew Point: 32°   Wind: 10mph
Humidity: 87%   Direction: 140°SE
Pressure: 29.11"   Gusts: NA
Location:  50.93°N, 104.5°W
Report Text: CYQR 230000Z 14009KT 15SM BKN080 02/00 A2911 RMK AC7 SLP881
Loading
Personal Weather Stations






























Interactive Weather Map New forecast layout! Learn more

10-Day Weather Forecast

Advertisements
Track Severe Weather on mobile